Time;durP1;ratioP1;P1;durP2;ratioP2;P2;SDS_P1;SDS_P2;PMS_P1;PMS_P2;Temp;Humidity;BMP_temperature;BMP_pressure;BME280_temperature;BME280_humidity;BME280_pressure;Samples;Min_cycle;Max_cycle;Signal;HPM_P1;HPM_P2
2024/04/17 00:01:21;;;;;;;;;;;;;;;5.12;100.00;101873.06;5496933;26;19934;-82
2024/04/17 00:03:47;;;;;;;;;;;;;;;5.22;100.00;101875.91;5495999;26;19927;-82
2024/04/17 00:06:13;;;;;;;;;;;;;;;5.29;100.00;101871.78;5465771;26;19927;-81
2024/04/17 00:08:38;;;;;;;;;;;;;;;5.32;100.00;101876.94;5495840;26;20426;-81
2024/04/17 00:11:04;;;;;;;;;;;;;;;5.31;100.00;101877.03;5465513;26;19942;-82
2024/04/17 00:13:30;;;;;;;;;;;;;;;5.29;100.00;101888.69;5526624;26;19995;-81
2024/04/17 00:15:59;;;;;;;;;;;;;;;5.31;100.00;101871.69;5465582;26;19928;-81
2024/04/17 00:18:25;;;;;;;;;;;;;;;5.28;100.00;101867.44;5495608;26;19927;-81
2024/04/17 00:20:50;;;;;;;;;;;;;;;5.25;100.00;101873.00;5465136;26;20258;-84
2024/04/17 00:23:16;;;;;;;;;;;;;;;5.25;100.00;101883.66;5495484;26;19932;-81
2024/04/17 00:25:41;;;;;;;;;;;;;;;5.27;100.00;101871.09;5465279;26;19927;-80
2024/04/17 00:28:07;;;;;;;;;;;;;;;5.29;100.00;101870.00;5525010;26;19934;-81
2024/04/17 00:30:32;;;;;;;;;;;;;;;5.33;100.00;101867.09;5526431;26;19935;-81
2024/04/17 00:32:58;;;;;;;;;;;;;;;5.38;100.00;101863.13;5498148;26;19959;-83
2024/04/17 00:35:23;;;;;;;;;;;;;;;5.43;100.00;101860.13;5467722;26;20366;-83
2024/04/17 00:37:49;;;;;;;;;;;;;;;5.46;100.00;101863.41;5495997;26;19928;-81
2024/04/17 00:40:14;;;;;;;;;;;;;;;5.51;100.00;101860.38;5526105;26;19934;-81
2024/04/17 00:42:39;;;;;;;;;;;;;;;5.58;100.00;101861.59;5525768;26;20005;-82
2024/04/17 00:45:05;;;;;;;;;;;;;;;5.64;100.00;101858.50;5495402;26;19928;-82
2024/04/17 00:47:32;;;;;;;;;;;;;;;5.66;100.00;101855.69;5526305;26;20422;-83
2024/04/17 00:49:57;;;;;;;;;;;;;;;5.70;100.00;101858.00;5495448;26;19928;-84
2024/04/17 00:52:23;;;;;;;;;;;;;;;5.75;100.00;101860.34;5495175;26;19928;-82
2024/04/17 00:54:48;;;;;;;;;;;;;;;5.75;100.00;101860.34;5465070;26;19936;-82
2024/04/17 00:57:14;;;;;;;;;;;;;;;5.72;100.00;101853.41;5464426;26;19927;-83
2024/04/17 00:59:40;;;;;;;;;;;;;;;5.68;100.00;101851.94;5464593;26;19939;-82
2024/04/17 01:02:05;;;;;;;;;;;;;;;5.64;100.00;101846.97;5464596;26;19935;-82
2024/04/17 01:04:31;;;;;;;;;;;;;;;5.61;100.00;101850.72;5525882;26;19927;-82
2024/04/17 01:06:56;;;;;;;;;;;;;;;5.60;100.00;101848.16;5525811;26;20433;-82
2024/04/17 01:09:22;;;;;;;;;;;;;;;5.56;100.00;101850.22;5525735;26;20258;-84
2024/04/17 01:11:48;;;;;;;;;;;;;;;5.48;100.00;101837.47;5494585;26;19928;-82
2024/04/17 01:14:13;;;;;;;;;;;;;;;5.40;100.00;101839.88;5525917;26;19928;-82
2024/04/17 01:16:39;;;;;;;;;;;;;;;5.30;100.00;101833.50;5494739;26;19995;-82
2024/04/17 01:19:05;;;;;;;;;;;;;;;5.24;100.00;101839.31;5464646;26;19996;-81
2024/04/17 01:21:30;;;;;;;;;;;;;;;5.20;100.00;101841.34;5494555;26;20262;-82
2024/04/17 01:23:56;;;;;;;;;;;;;;;5.20;100.00;101837.84;5525541;26;19935;-82
2024/04/17 01:26:21;;;;;;;;;;;;;;;5.21;100.00;101840.41;5494824;26;19927;-82
2024/04/17 01:28:47;;;;;;;;;;;;;;;5.22;100.00;101836.75;5494518;26;20335;-82
2024/04/17 01:31:12;;;;;;;;;;;;;;;5.25;100.00;101835.66;5463972;26;19934;-83
2024/04/17 01:33:38;;;;;;;;;;;;;;;5.25;100.00;101836.53;5494453;26;19959;-82
2024/04/17 01:36:07;;;;;;;;;;;;;;;5.28;100.00;101833.63;5494839;26;19934;-84
2024/04/17 01:38:32;;;;;;;;;;;;;;;5.32;100.00;101836.94;5464786;26;19934;-84
2024/04/17 01:40:58;;;;;;;;;;;;;;;5.34;100.00;101834.97;5497991;26;19927;-84
2024/04/17 01:43:29;;;;;;;;;;;;;;;5.40;100.00;101833.66;5498136;26;20373;-81
2024/04/17 01:45:55;;;;;;;;;;;;;;;5.44;100.00;101830.66;5499509;26;19939;-81
2024/04/17 01:48:20;;;;;;;;;;;;;;;5.47;100.00;101830.41;5497716;26;20078;-82
2024/04/17 01:50:46;;;;;;;;;;;;;;;5.46;100.00;101827.88;5497623;26;20286;-81
2024/04/17 01:53:11;;;;;;;;;;;;;;;5.39;100.00;101818.63;5497716;26;19931;-83
2024/04/17 01:55:37;;;;;;;;;;;;;;;5.28;100.00;101814.94;5497713;26;20279;-82
2024/04/17 01:58:02;;;;;;;;;;;;;;;5.19;100.00;101815.66;5497662;26;19934;-82
2024/04/17 02:00:28;;;;;;;;;;;;;;;5.14;100.00;101812.47;5497460;26;19927;-82
2024/04/17 02:02:53;;;;;;;;;;;;;;;5.12;100.00;101814.41;5497810;26;20266;-82
2024/04/17 02:05:19;;;;;;;;;;;;;;;5.15;100.00;101813.31;5467742;26;19934;-82
2024/04/17 02:07:44;;;;;;;;;;;;;;;5.19;100.00;101821.00;5497530;26;19928;-82
2024/04/17 02:10:10;;;;;;;;;;;;;;;5.24;100.00;101818.00;5497435;26;19927;-81
2024/04/17 02:12:35;;;;;;;;;;;;;;;5.28;100.00;101817.63;5467111;26;19995;-83
2024/04/17 02:15:01;;;;;;;;;;;;;;;5.32;100.00;101812.03;5497886;26;19927;-82
2024/04/17 02:17:26;;;;;;;;;;;;;;;5.33;100.00;101819.09;5497787;26;19927;-82
2024/04/17 02:19:52;;;;;;;;;;;;;;;5.33;100.00;101819.94;5497633;26;19934;-83
2024/04/17 02:22:23;;;;;;;;;;;;;;;5.31;100.00;101813.88;5467060;26;19939;-82
2024/04/17 02:24:48;;;;;;;;;;;;;;;5.27;100.00;101818.59;5467772;26;19927;-82
2024/04/17 02:27:14;;;;;;;;;;;;;;;5.24;100.00;101824.16;5467047;26;19934;-82
2024/04/17 02:29:39;;;;;;;;;;;;;;;5.26;100.00;101832.03;5497486;26;20013;-81
2024/04/17 02:32:05;;;;;;;;;;;;;;;5.27;100.00;101825.75;5466695;26;19939;-81
2024/04/17 02:34:30;;;;;;;;;;;;;;;5.28;100.00;101835.44;5467406;26;19928;-83
2024/04/17 02:36:56;;;;;;;;;;;;;;;5.31;100.00;101829.03;5497153;26;19931;-82
2024/04/17 02:39:21;;;;;;;;;;;;;;;5.34;100.00;101828.78;5497421;26;20257;-82
2024/04/17 02:41:47;;;;;;;;;;;;;;;5.35;100.00;101819.84;5497081;26;20061;-82
2024/04/17 02:44:12;;;;;;;;;;;;;;;5.37;100.00;101820.56;5527766;26;19935;-82
2024/04/17 02:46:37;;;;;;;;;;;;;;;5.37;100.00;101812.56;5528247;26;19995;-82
2024/04/17 02:49:03;;;;;;;;;;;;;;;5.34;100.00;101812.78;5497246;26;19927;-82
2024/04/17 02:51:28;;;;;;;;;;;;;;;5.33;100.00;101822.59;5495955;26;19928;-83
2024/04/17 02:53:54;;;;;;;;;;;;;;;5.34;100.00;101818.97;5497698;26;19935;-81
2024/04/17 02:56:19;;;;;;;;;;;;;;;5.37;100.00;101817.88;5466799;26;19995;-81
2024/04/17 02:58:45;;;;;;;;;;;;;;;5.41;100.00;101814.03;5496664;26;20369;-82
2024/04/17 03:01:14;;;;;;;;;;;;;;;5.45;100.00;101812.81;5466369;26;19928;-83
2024/04/17 03:03:40;;;;;;;;;;;;;;;5.50;100.00;101811.53;5467019;26;19934;-81
2024/04/17 03:06:06;;;;;;;;;;;;;;;5.64;100.00;101807.78;5528040;26;20354;-82
2024/04/17 03:08:31;;;;;;;;;;;;;;;5.77;100.00;101814.84;5527760;26;19927;-82
2024/04/17 03:10:58;;;;;;;;;;;;;;;5.86;100.00;101812.31;5496681;26;20277;-85
2024/04/17 03:13:23;;;;;;;;;;;;;;;5.91;100.00;101817.31;5466381;26;19996;-85
2024/04/17 03:15:49;;;;;;;;;;;;;;;5.91;100.00;101806.63;5466298;26;19935;-85
2024/04/17 03:18:14;;;;;;;;;;;;;;;5.86;100.00;101809.66;5496774;26;19942;-85
2024/04/17 03:20:40;;;;;;;;;;;;;;;5.77;100.00;101806.81;5466267;26;19927;-85
2024/04/17 03:23:06;;;;;;;;;;;;;;;5.63;100.00;101818.56;5496676;26;19995;-85
2024/04/17 03:25:31;;;;;;;;;;;;;;;5.44;100.00;101817.31;5466399;26;19993;-82
2024/04/17 03:27:57;;;;;;;;;;;;;;;5.22;100.00;101810.09;5466333;26;19927;-82
2024/04/17 03:30:22;;;;;;;;;;;;;;;5.01;100.00;101811.69;5496735;26;19928;-82
2024/04/17 03:32:48;;;;;;;;;;;;;;;4.82;100.00;101822.88;5496073;26;19928;-82
2024/04/17 03:35:13;;;;;;;;;;;;;;;4.59;100.00;101817.38;5496749;26;19934;-82
2024/04/17 03:37:39;;;;;;;;;;;;;;;4.43;100.00;101824.78;5527745;26;20366;-82
2024/04/17 03:40:05;;;;;;;;;;;;;;;4.44;100.00;101830.94;5465885;26;19927;-85
2024/04/17 03:42:31;;;;;;;;;;;;;;;4.41;100.00;101824.88;5497129;26;19999;-85
2024/04/17 03:44:56;;;;;;;;;;;;;;;4.39;100.00;101832.16;5496337;26;20409;-85
2024/04/17 03:47:22;;;;;;;;;;;;;;;4.44;100.00;101825.63;5465854;26;19995;-84
2024/04/17 03:49:47;;;;;;;;;;;;;;;4.48;100.00;101821.78;5526858;26;19936;-82
2024/04/17 03:52:13;;;;;;;;;;;;;;;4.44;100.00;101818.47;5496134;26;19938;-82
2024/04/17 03:54:38;;;;;;;;;;;;;;;4.45;100.00;101812.22;5495723;26;19955;-82
2024/04/17 03:57:04;;;;;;;;;;;;;;;4.53;100.00;101809.84;5496418;26;19947;-82
2024/04/17 03:59:29;;;;;;;;;;;;;;;4.54;100.00;101806.22;5465430;26;19928;-82
2024/04/17 04:01:56;;;;;;;;;;;;;;;4.62;100.00;101806.50;5526436;26;19939;-82
2024/04/17 04:04:21;;;;;;;;;;;;;;;4.51;100.00;101808.25;5526650;26;19935;-82
2024/04/17 04:06:47;;;;;;;;;;;;;;;4.39;100.00;101808.19;5496261;26;19927;-84
2024/04/17 04:09:12;;;;;;;;;;;;;;;4.23;100.00;101812.03;5465483;26;20254;-82
2024/04/17 04:11:38;;;;;;;;;;;;;;;4.07;100.00;101814.91;5495743;26;19927;-82
2024/04/17 04:14:05;;;;;;;;;;;;;;;3.95;100.00;101816.63;5495812;26;19928;-82
2024/04/17 04:16:32;;;;;;;;;;;;;;;3.84;100.00;101825.38;5526650;26;19956;-83
2024/04/17 04:18:58;;;;;;;;;;;;;;;3.78;100.00;101830.25;5496254;26;19943;-82
2024/04/17 04:21:23;;;;;;;;;;;;;;;3.81;100.00;101824.72;5526382;26;19995;-83
2024/04/17 04:23:49;;;;;;;;;;;;;;;3.84;100.00;101820.06;5495578;26;19927;-83
2024/04/17 04:26:14;;;;;;;;;;;;;;;3.84;100.00;101817.38;5465600;26;19980;-82
2024/04/17 04:28:40;;;;;;;;;;;;;;;3.74;100.00;101813.66;5465203;26;19927;-83
2024/04/17 04:31:06;;;;;;;;;;;;;;;3.59;100.00;101812.88;5465755;26;19934;-82
2024/04/17 04:33:31;;;;;;;;;;;;;;;3.46;100.00;101804.88;5495362;26;19927;-82
2024/04/17 04:35:57;;;;;;;;;;;;;;;3.34;100.00;101805.72;5465350;26;19939;-82
2024/04/17 04:38:23;;;;;;;;;;;;;;;3.28;100.00;101806.13;5495330;26;20322;-83
2024/04/17 04:40:49;;;;;;;;;;;;;;;3.29;100.00;101807.84;5495541;26;19927;-84
2024/04/17 04:43:14;;;;;;;;;;;;;;;3.29;100.00;101798.06;5464983;26;19933;-82
2024/04/17 04:45:40;;;;;;;;;;;;;;;3.29;100.00;101813.16;5495348;26;19928;-82
2024/04/17 04:48:06;;;;;;;;;;;;;;;3.31;100.00;101805.94;5526197;26;19996;-82
2024/04/17 04:50:31;;;;;;;;;;;;;;;3.31;100.00;101800.63;5495562;26;19931;-82
2024/04/17 04:52:57;;;;;;;;;;;;;;;3.35;100.00;101806.59;5495277;26;19927;-86
2024/04/17 04:55:23;;;;;;;;;;;;;;;3.40;100.00;101804.47;5526164;26;19928;-82
2024/04/17 04:57:49;;;;;;;;;;;;;;;3.43;100.00;101804.25;5494843;26;19928;-82
2024/04/17 05:00:14;;;;;;;;;;;;;;;3.41;100.00;101799.03;5495241;26;19996;-82
2024/04/17 05:02:40;;;;;;;;;;;;;;;3.34;100.00;101799.56;5464821;26;19996;-83
2024/04/17 05:05:05;;;;;;;;;;;;;;;3.20;100.00;101792.50;5495376;26;19928;-83
2024/04/17 05:07:31;;;;;;;;;;;;;;;3.01;100.00;101791.06;5494873;26;20374;-84
2024/04/17 05:09:56;;;;;;;;;;;;;;;2.82;100.00;101783.47;5465327;26;19928;-85
2024/04/17 05:12:22;;;;;;;;;;;;;;;2.64;100.00;101796.13;5496078;26;19928;-82
2024/04/17 05:14:47;;;;;;;;;;;;;;;2.49;100.00;101796.25;5525321;26;19927;-86
2024/04/17 05:17:13;;;;;;;;;;;;;;;2.33;100.00;101797.25;5494753;26;20000;-83
2024/04/17 05:19:38;;;;;;;;;;;;;;;2.26;100.00;101805.69;5464302;26;19928;-82
2024/04/17 05:22:04;;;;;;;;;;;;;;;2.27;100.00;101804.72;5464106;26;19929;-82
2024/04/17 05:24:35;;;;;;;;;;;;;;;2.25;100.00;101804.84;5464038;26;20414;-83
2024/04/17 05:27:04;;;;;;;;;;;;;;;2.25;100.00;101811.94;5495062;26;20426;-83
2024/04/17 05:29:30;;;;;;;;;;;;;;;2.16;100.00;101806.25;5464145;26;19943;-83
2024/04/17 05:31:55;;;;;;;;;;;;;;;2.10;100.00;101805.81;5463889;26;19927;-82
2024/04/17 05:34:24;;;;;;;;;;;;;;;2.11;100.00;101808.34;5525195;26;19990;-82
2024/04/17 05:36:49;;;;;;;;;;;;;;;2.32;100.00;101810.59;5494080;26;19927;-83
2024/04/17 05:39:15;;;;;;;;;;;;;;;2.53;100.00;101811.91;5494660;26;20274;-82
2024/04/17 05:41:40;;;;;;;;;;;;;;;2.78;100.00;101808.53;5524700;26;19966;-83
2024/04/17 05:44:06;;;;;;;;;;;;;;;3.03;100.00;101804.25;5494460;26;20286;-83
2024/04/17 05:46:31;;;;;;;;;;;;;;;3.23;100.00;101808.28;5472233;26;19996;-81
2024/04/17 05:48:56;;;;;;;;;;;;;;;3.42;100.00;101806.06;5511329;26;19939;-84
2024/04/17 05:51:22;;;;;;;;;;;;;;;3.65;100.00;101808.94;5494596;26;19928;-82
2024/04/17 05:53:48;;;;;;;;;;;;;;;3.87;100.00;101801.22;5493954;26;20351;-84
2024/04/17 05:56:14;;;;;;;;;;;;;;;4.04;100.00;101804.50;5463664;26;19934;-83
2024/04/17 05:58:40;;;;;;;;;;;;;;;4.17;100.00;101800.00;5524775;26;19935;-82
2024/04/17 06:01:05;;;;;;;;;;;;;;;4.24;100.00;101806.59;5524872;26;19927;-82
2024/04/17 06:03:31;;;;;;;;;;;;;;;4.32;100.00;101798.91;5493770;26;19931;-82
2024/04/17 06:05:56;;;;;;;;;;;;;;;4.39;100.00;101783.34;5493538;26;19927;-82
2024/04/17 06:08:22;;;;;;;;;;;;;;;4.40;100.00;101779.72;5463485;26;19995;-83
2024/04/17 06:10:47;;;;;;;;;;;;;;;4.38;100.00;101779.00;5463423;26;19928;-82
2024/04/17 06:13:13;;;;;;;;;;;;;;;4.40;100.00;101787.72;5463207;26;20350;-83
2024/04/17 06:15:38;;;;;;;;;;;;;;;4.50;100.00;101799.41;5524638;26;19935;-83
2024/04/17 06:18:04;;;;;;;;;;;;;;;4.62;100.00;101800.31;5524312;26;20060;-82
2024/04/17 06:20:30;;;;;;;;;;;;;;;4.69;100.00;101804.25;5524135;26;19951;-82
2024/04/17 06:22:56;;;;;;;;;;;;;;;4.79;100.00;101801.75;5493485;26;19927;-82
2024/04/17 06:25:21;;;;;;;;;;;;;;;4.87;100.00;101794.06;5524837;26;19934;-82
2024/04/17 06:27:47;;;;;;;;;;;;;;;4.96;100.00;101790.72;5497563;26;19955;-82
2024/04/17 06:30:12;;;;;;;;;;;;;;;5.07;100.00;101777.41;5497438;26;19934;-82
2024/04/17 06:32:38;;;;;;;;;;;;;;;5.12;100.00;101781.56;5528310;26;19927;-82
2024/04/17 06:35:03;;;;;;;;;;;;;;;5.18;100.00;101781.09;5497289;26;19997;-83
2024/04/17 06:37:29;;;;;;;;;;;;;;;5.23;100.00;101782.44;5495740;26;20382;-83
2024/04/17 06:39:54;;;;;;;;;;;;;;;5.25;100.00;101790.34;5525996;26;19927;-82
2024/04/17 06:42:20;;;;;;;;;;;;;;;5.25;100.00;101793.00;5493656;26;19927;-84
2024/04/17 06:44:45;;;;;;;;;;;;;;;5.26;100.00;101790.22;5493391;26;19934;-83
2024/04/17 06:47:11;;;;;;;;;;;;;;;5.28;100.00;101790.94;5493700;26;20366;-83
2024/04/17 06:49:36;;;;;;;;;;;;;;;5.30;100.00;101785.50;5463134;26;20405;-83
2024/04/17 06:52:02;;;;;;;;;;;;;;;5.34;100.00;101791.44;5493866;26;20433;-83
2024/04/17 06:54:27;;;;;;;;;;;;;;;5.40;100.00;101797.19;5495644;26;19927;-83
2024/04/17 06:56:53;;;;;;;;;;;;;;;5.44;100.00;101795.13;5527852;26;19928;-82
2024/04/17 06:59:18;;;;;;;;;;;;;;;5.46;100.00;101793.19;5496970;26;19935;-84
2024/04/17 07:01:44;;;;;;;;;;;;;;;5.50;100.00;101795.53;5497006;26;20284;-84
2024/04/17 07:04:09;;;;;;;;;;;;;;;5.57;100.00;101792.38;5466908;26;19935;-82
2024/04/17 07:06:35;;;;;;;;;;;;;;;5.66;100.00;101792.53;5498874;26;19927;-83
2024/04/17 07:09:01;;;;;;;;;;;;;;;5.80;100.00;101787.94;5488023;26;19927;-83
2024/04/17 07:11:27;;;;;;;;;;;;;;;5.88;100.00;101780.19;5471167;26;20250;-82
2024/04/17 07:13:52;;;;;;;;;;;;;;;5.96;100.00;101776.94;5466893;26;19934;-83
2024/04/17 07:16:18;;;;;;;13.40;2.57;;;;;;;6.01;100.00;101780.94;5465967;26;19935;-82
2024/04/17 07:18:45;;;;;;;;;;;;;;;6.09;100.00;101778.50;5527778;26;20008;-84
2024/04/17 07:21:10;;;;;;;;;;;;;;;6.22;100.00;101775.72;5466663;26;19923;-83
2024/04/17 07:23:38;;;;;;;;;;;;;;;6.43;100.00;101774.94;5466295;26;19930;-83
2024/04/17 07:26:03;;;;;;;;;;;;;;;6.69;100.00;101779.03;5528125;26;19927;-83
2024/04/17 07:28:29;;;;;;;;;;;;;;;6.96;100.00;101773.25;5497756;26;20357;-82
2024/04/17 07:30:54;;;;;;;;;;;;;;;7.24;100.00;101776.28;5498678;26;20363;-83
2024/04/17 07:33:20;;;;;;;;;;;;;;;7.46;100.00;101775.28;5466324;26;19923;-82
2024/04/17 07:35:46;;;;;;;;;;;;;;;7.74;100.00;101773.78;5496508;26;19960;-83
2024/04/17 07:38:12;;;;;;;;;;;;;;;7.97;100.00;101762.94;5465836;26;20395;-83
2024/04/17 07:40:39;;;;;;;;;;;;;;;8.12;100.00;101772.25;5465905;26;19924;-83
2024/04/17 07:43:12;;;;;;;;;;;;;;;8.28;100.00;101769.97;5469857;26;19923;-82
2024/04/17 07:45:38;;;;;;;;;;;;;;;8.45;100.00;101764.94;5466049;26;19930;-82
2024/04/17 07:48:06;;;;;;;;;;;;;;;8.55;100.00;101766.66;5497485;26;19998;-84
2024/04/17 07:50:32;;;;;;;;;;;;;;;8.81;100.00;101760.75;5465931;26;20354;-83
2024/04/17 07:52:57;;;;;;;;;;;;;;;8.98;100.00;101754.72;5465824;26;19951;-83
2024/04/17 07:55:23;;;;;;;;;;;;;;;8.95;100.00;101751.47;5527200;26;19968;-83
2024/04/17 07:57:48;;;;;;;;;;;;;;;8.85;100.00;101745.25;5496174;26;19930;-83
2024/04/17 08:00:14;;;;;;;;;;;;;;;8.71;100.00;101738.47;5465807;26;19935;-82
2024/04/17 08:02:39;;;;;;;;;;;;;;;8.57;100.00;101731.66;5526790;26;19923;-83
2024/04/17 08:05:05;;;;;;;;;;;;;;;8.44;100.00;101733.75;5466746;26;19927;-82
2024/04/17 08:07:30;;;;;;;;;;;;;;;8.27;100.00;101728.03;5465389;26;19935;-82
2024/04/17 08:09:56;;;;;;;;;;;;;;;8.11;100.00;101733.06;5496572;26;19923;-86
2024/04/17 08:12:21;;;;;;;;;;;;;;;7.97;100.00;101741.50;5495870;26;20395;-86
2024/04/17 08:14:47;;;;;;;;;;;;;;;7.84;100.00;101737.19;5466270;26;19931;-87
2024/04/17 08:17:12;;;;;;;;;;;;;;;7.77;100.00;101736.03;5526729;26;19924;-87
2024/04/17 08:19:38;;;;;;;;;;;;;;;7.64;100.00;101727.38;5496474;26;19923;-88
2024/04/17 08:22:03;;;;;;;;;;;;;;;7.53;100.00;101724.78;5526870;26;19923;-87
2024/04/17 08:24:29;;;;;;;;;;;;;;;7.47;100.00;101735.03;5465522;26;19924;-85
2024/04/17 08:26:54;;;;;;;;;;;;;;;7.39;100.00;101729.50;5527373;26;20322;-87
2024/04/17 08:29:20;;;;;;;;;;;;;;;7.32;100.00;101728.31;5498160;26;19923;-86
2024/04/17 08:31:47;;;;;;;;;;;;;;;7.38;100.00;101718.91;5544117;25;19915;-87
2024/04/17 08:34:12;;;;;;;;;;;;;;;7.44;100.00;101729.94;5507981;25;19923;-88
2024/04/17 08:36:39;;;;;;;;;;;;;;;7.60;100.00;101726.81;5495869;26;19930;-87
2024/04/17 08:39:04;;;;;;;;;;;;;;;7.89;100.00;101720.75;5495638;26;19923;-85
2024/04/17 08:41:30;;;;;;;;;;;;;;;8.14;100.00;101727.44;5526535;26;19991;-86
2024/04/17 08:43:58;;;;;;;;;;;;;;;8.35;100.00;101720.16;5465223;26;19927;-86
2024/04/17 08:46:23;;;;;;;;;;;;;;;8.65;100.00;101715.72;5465235;26;19931;-87
2024/04/17 08:48:49;;;;;;;;;;;;;;;8.91;100.00;101721.38;5524947;26;20331;-87
2024/04/17 08:51:14;;;;;;;;;;;;;;;9.11;100.00;101705.28;5465594;26;19935;-87
2024/04/17 08:53:40;;;;;;;;;;;;;;;9.15;100.00;101712.91;5495676;26;20357;-89
2024/04/17 08:56:06;;;;;;;;;;;;;;;9.19;100.00;101705.41;5526586;26;20374;-88
2024/04/17 08:58:32;;;;;;;;;;;;;;;9.19;100.00;101702.75;5495519;26;20258;-86
2024/04/17 09:00:57;;;;;;;;;;;;;;;9.10;100.00;101699.06;5526118;26;19923;-86
2024/04/17 09:03:23;;;;;;;;;;;;;;;9.22;100.00;101695.25;5495052;26;19924;-87
2024/04/17 09:05:48;;;;;;;;;;;;;;;9.58;100.00;101684.72;5494961;26;19930;-87
2024/04/17 09:08:15;;;;;;;;;;;;;;;9.87;100.00;101675.66;5464941;26;19931;-87
2024/04/17 09:10:41;;;;;;;;;;;;;;;10.20;100.00;101668.00;5464824;26;20409;-90
2024/04/17 09:13:06;;;;;;;;;;;;;;;10.59;100.00;101665.09;5464829;26;19939;-88
2024/04/17 09:15:32;;;;;;;;;;;;;;;10.71;100.00;101663.81;5464813;26;19923;-89
2024/04/17 09:17:59;;;;;;;;;;;;;;;11.03;100.00;101654.34;5464835;26;19923;-88
2024/04/17 09:20:24;;;;;;;;;;;;;;;11.44;100.00;101650.91;5495992;26;19927;-86
2024/04/17 09:22:53;;;;;;;;;;;;;;;11.66;100.00;101654.88;5494304;26;19931;-87
2024/04/17 09:25:19;;;;;;;;;;;;;;;11.55;100.00;101651.66;5494987;26;19923;-86
2024/04/17 09:27:45;;;;;;;;;;;;;;;11.18;100.00;101650.06;5495149;26;20423;-87
2024/04/17 09:30:10;;;;;;;;;;;;;;;10.99;100.00;101640.34;5526049;26;20350;-87
2024/04/17 09:32:36;;;;;;;;;;;;;;;11.03;100.00;101640.88;5466768;26;19923;-88
2024/04/17 09:35:01;;;;;;;;;;;;;;;10.98;100.00;101638.66;5494851;26;19923;-88
2024/04/17 09:37:27;;;;;;;;;;;;;;;10.97;100.00;101631.59;5497244;26;19933;-88
2024/04/17 09:40:03;;;;;;;;;;;;;;;10.96;100.00;101638.81;5498156;26;20006;-87
2024/04/17 09:42:28;;;;;;;;;;;;;;;11.05;100.00;101637.03;5512079;25;19916;-87
2024/04/17 09:44:54;;;;;;;;;;;;;;;11.30;100.00;101632.66;5508566;25;19930;-87
2024/04/17 09:47:19;;;;;;;;;;;;;;;11.39;100.00;101631.69;5495725;26;19923;-88
2024/04/17 09:49:45;;;;;;;;;;;;;;;11.37;100.00;101625.63;5495140;26;20013;-88
2024/04/17 09:52:14;;;;;;;;;;;;;;;11.60;100.00;101611.59;5495256;26;19923;-87
2024/04/17 09:54:42;;;;;;;;;;;;;;;11.90;100.00;101621.00;5498042;26;19923;-86
2024/04/17 09:57:07;;;;;;;;;;;;;;;12.28;100.00;101626.84;5546632;26;19931;-86
2024/04/17 09:59:33;;;;;;;;;;;;;;;12.75;100.00;101626.19;5515282;26;19923;-87
2024/04/17 10:01:58;;;;;;;;;;;;;;;12.95;100.00;101627.53;5468448;26;20357;-87
2024/04/17 10:04:24;;;;;;;;;;;;;;;12.70;100.00;101615.06;5529024;26;19923;-87
2024/04/17 10:06:49;;;;;;;;;;;;;;;12.29;100.00;101632.06;5498369;26;19935;-88
2024/04/17 10:09:15;;;;;;;;;;;;;;;11.45;100.00;101622.13;5530020;26;20318;-87
2024/04/17 10:11:42;;;;;;;;;;;;;;;10.86;100.00;101621.09;5468764;26;19932;-88
2024/04/17 10:14:12;;;;;;;;;;;;;;;10.67;100.00;101620.25;5468088;26;19924;-88
2024/04/17 10:16:37;;;;;;;;;;;;;;;11.11;100.00;101605.94;5467880;26;19931;-87
2024/04/17 10:19:03;;;;;;;;;;;;;;;11.56;100.00;101607.53;5498321;26;19923;-88
2024/04/17 10:21:30;;;;;;;;;;;;;;;12.18;100.00;101609.97;5498187;26;19923;-87
2024/04/17 10:23:59;;;;;;;;;;;;;;;12.56;100.00;101613.88;5498091;26;19935;-87
2024/04/17 10:26:34;;;;;;;;;;;;;;;12.73;100.00;101609.34;5467806;26;20417;-90
2024/04/17 10:29:00;;;;;;;;;;;;;;;12.38;100.00;101603.25;5498941;26;20272;-88
2024/04/17 10:31:32;;;;;;;;;;;;;;;12.14;100.00;101604.03;5467405;26;19924;-87
2024/04/17 10:33:57;;;;;;;;;;;;;;;11.82;100.00;101605.63;5468177;26;20394;-87
2024/04/17 10:36:23;;;;;;;;;;;;;;;11.71;100.00;101605.91;5467415;26;19931;-86
2024/04/17 10:38:49;;;;;;;;;;;;;;;11.85;100.00;101591.84;5497741;26;19935;-86
2024/04/17 10:41:14;;;;;;;;;;;;;;;12.42;100.00;101590.28;5467225;26;19923;-87
2024/04/17 10:43:42;;;;;;;;;;;;;;;13.25;100.00;101592.72;5497864;26;19924;-88
2024/04/17 10:46:08;;;;;;;;;;;;;;;12.98;100.00;101594.81;5498305;26;20381;-89
2024/04/17 10:48:49;;;;;;;;;;;;;;;12.76;100.00;101590.94;5497626;26;19924;-87
2024/04/17 10:51:15;;;;;;;;;;;;;;;13.05;100.00;101581.47;5497471;26;19931;-86
2024/04/17 10:53:45;;;;;;;;;;;;;;;13.35;100.00;101592.56;5528313;26;20391;-87
2024/04/17 10:56:17;;;;;;;;;;;;;;;12.80;100.00;101582.50;5467871;26;19992;-87
2024/04/17 10:58:43;;;;;;;;;;;;;;;12.44;100.00;101574.78;5467805;26;19951;-87
2024/04/17 11:01:09;;;;;;;;;;;;;;;12.13;100.00;101585.38;5529461;26;19923;-87
2024/04/17 11:03:34;;;;;;;;;;;;;;;11.87;100.00;101586.31;5497920;26;20377;-86
2024/04/17 11:06:02;;;;;;;;;;;;;;;11.75;100.00;101592.97;5466986;26;19924;-87
2024/04/17 11:08:28;;;;;;;;;;;;;;;11.68;100.00;101575.78;5467012;26;19923;-88
2024/04/17 11:10:54;;;;;;;;;;;;;;;11.81;100.00;101587.78;5496291;26;19924;-87
2024/04/17 11:13:19;;;;;;;;;;;;;;;12.02;100.00;101578.44;5496486;26;19930;-87
2024/04/17 11:15:45;;;;;;;;;;;;;;;12.45;100.00;101569.19;5467113;26;19923;-88
2024/04/17 11:18:11;;;;;;;;;;;;;;;12.72;100.00;101565.31;5527869;26;19930;-87
2024/04/17 11:20:37;;;;;;;;;;;;;;;12.47;100.00;101560.94;5497729;26;19930;-87
2024/04/17 11:23:06;;;;;;;;;;;;;;;12.36;100.00;101555.88;5469683;26;19963;-88
2024/04/17 11:25:32;;;;;;;;;;;;;;;12.39;100.00;101553.69;5497095;26;19935;-87
2024/04/17 11:27:57;;;;;;;;;;;;;;;12.35;100.00;101570.38;5466320;26;20314;-87
2024/04/17 11:30:23;;;;;;;;;;;;;;;11.63;100.00;101557.41;5497452;26;20107;-87
2024/04/17 11:32:48;;;;;;;;;;;;;;;11.52;100.00;101561.25;5496963;26;19924;-86
2024/04/17 11:35:17;;;;;;;;;;;;;;;11.63;100.00;101547.47;5466789;26;20249;-87
2024/04/17 11:37:49;;;;;;;;;;;;;;;12.01;100.00;101549.78;5466319;26;19923;-86
2024/04/17 11:40:15;;;;;;;;;;;;;;;12.34;100.00;101549.81;5465192;26;19992;-88
2024/04/17 11:42:41;;;;;;;;;;;;;;;12.83;100.00;101550.63;5493357;26;19959;-87
2024/04/17 11:45:12;;;;;;;;;;;;;;;12.59;100.00;101546.09;5462876;26;19927;-86
2024/04/17 11:47:37;;;;;;;;;;;;;;;12.17;100.00;101557.91;5493657;26;19923;-86
2024/04/17 11:50:04;;;;;;;;;;;;;;;12.12;100.00;101540.53;5492952;26;19930;-90
2024/04/17 11:52:32;;;;;;;;;;;;;;;12.10;100.00;101551.50;5523757;26;19923;-87
2024/04/17 11:54:58;;;;;;;;;;;;;;;12.10;100.00;101546.94;5493751;26;19992;-88
2024/04/17 11:57:23;;;;;;;;;;;;;;;12.24;100.00;101534.63;5463847;26;19935;-87
2024/04/17 11:59:49;;;;;;;;;;;;;;;12.47;100.00;101542.06;5496266;26;19923;-87
2024/04/17 12:02:14;;;;;;;;;;;;;;;12.39;100.00;101526.72;5496328;26;19923;-88
2024/04/17 12:04:40;;;;;;;;;;;;;;;12.15;100.00;101540.22;5497118;26;19923;-84
2024/04/17 12:07:05;;;;;;;;;;;;;;;12.01;100.00;101530.91;5496393;26;19930;-84
2024/04/17 12:09:31;;;;;;;;;;;;;;;12.04;100.00;101538.66;5495888;26;19930;-83
2024/04/17 12:11:56;;;;;;;;;;;;;;;12.06;100.00;101531.25;5495797;26;19930;-84
2024/04/17 12:14:23;;;;;;;;;;;;;;;12.13;100.00;101529.59;5495544;26;20405;-84
2024/04/17 12:16:49;;;;;;;;;;;;;;;12.14;100.00;101523.16;5465696;26;19927;-84
2024/04/17 12:19:14;;;;;;;;;;;;;;;12.01;100.00;101514.72;5465798;26;19928;-85
2024/04/17 12:21:40;;;;;;;;;;;;;;;11.98;100.00;101532.09;5495789;26;19927;-84
2024/04/17 12:24:08;;;;;;;;;;;;;;;12.26;100.00;101519.16;5526176;26;19935;-84
2024/04/17 12:26:49;;;;;;;;;;;;;;;12.18;100.00;101511.06;5496617;26;20377;-85